createdAt,value
2023-03-18T00:01:45.254Z,38.83
2023-03-18T00:04:12.619Z,38.75
2023-03-18T00:06:38.966Z,38.78
2023-03-18T00:09:05.307Z,38.90
2023-03-18T00:11:31.756Z,38.78
2023-03-18T00:13:58.287Z,38.87
2023-03-18T00:16:24.704Z,38.84
2023-03-18T00:18:51.121Z,38.78
2023-03-18T00:21:18.920Z,38.71
2023-03-18T00:23:45.423Z,38.73
2023-03-18T00:26:11.872Z,38.79
2023-03-18T00:28:40.678Z,38.86
2023-03-18T00:31:09.013Z,38.90
2023-03-18T00:33:36.294Z,38.93
2023-03-18T00:36:02.907Z,38.95
2023-03-18T00:38:29.503Z,38.96
2023-03-18T00:41:10.804Z,38.92
2023-03-18T00:43:45.910Z,39.09
2023-03-18T00:46:19.243Z,39.34
2023-03-18T00:48:45.763Z,39.43
2023-03-18T00:51:17.023Z,39.52
2023-03-18T00:53:44.967Z,39.51
2023-03-18T00:56:12.053Z,39.39
2023-03-18T00:58:38.456Z,39.40
2023-03-18T01:01:05.476Z,39.40
2023-03-18T01:03:31.865Z,39.29
2023-03-18T01:05:59.494Z,39.39
2023-03-18T01:08:27.008Z,39.33
2023-03-18T01:10:53.342Z,39.43
2023-03-18T01:13:19.750Z,39.43
2023-03-18T01:15:46.147Z,39.42
2023-03-18T01:18:12.524Z,39.38
2023-03-18T01:20:38.873Z,39.41
2023-03-18T01:23:05.948Z,39.47
2023-03-18T01:25:32.578Z,39.39
2023-03-18T01:27:59.467Z,39.50
2023-03-18T01:30:25.881Z,39.43
2023-03-18T01:32:54.494Z,39.43
2023-03-18T01:35:21.059Z,39.35
2023-03-18T01:37:49.293Z,39.45
2023-03-18T01:40:16.110Z,39.46
2023-03-18T01:42:47.184Z,39.49
2023-03-18T01:45:18.040Z,39.50
2023-03-18T01:47:44.815Z,39.48
2023-03-18T01:50:12.897Z,39.46
2023-03-18T01:52:39.233Z,39.50
2023-03-18T01:55:06.916Z,39.41
2023-03-18T01:57:33.227Z,39.39
2023-03-18T01:59:59.807Z,39.53
2023-03-18T02:02:26.312Z,39.50
2023-03-18T02:04:53.824Z,39.40
2023-03-18T02:07:21.377Z,39.18
2023-03-18T02:09:47.753Z,39.32
2023-03-18T02:12:15.266Z,39.54
2023-03-18T02:14:41.646Z,39.39
2023-03-18T02:17:21.381Z,39.50
2023-03-18T02:19:53.089Z,39.38
2023-03-18T02:22:28.599Z,39.40
2023-03-18T02:25:17.609Z,39.46
2023-03-18T02:27:45.164Z,39.41
2023-03-18T02:30:16.501Z,39.44
2023-03-18T02:32:45.052Z,39.44
2023-03-18T02:35:11.571Z,39.44
2023-03-18T02:37:39.041Z,39.44
2023-03-18T02:40:12.112Z,39.39
2023-03-18T02:42:38.532Z,39.44
2023-03-18T02:45:05.936Z,39.44
2023-03-18T02:47:40.881Z,39.41
2023-03-18T02:50:07.315Z,39.48
2023-03-18T02:52:33.683Z,39.48
2023-03-18T02:55:01.635Z,39.48
2023-03-18T02:57:29.018Z,39.54
2023-03-18T02:59:56.767Z,39.53
2023-03-18T03:02:23.457Z,39.46
2023-03-18T03:04:49.943Z,39.48
2023-03-18T03:07:17.975Z,39.47
2023-03-18T03:09:49.878Z,39.49
2023-03-18T03:12:16.228Z,39.33
2023-03-18T03:14:49.480Z,39.57
2023-03-18T03:17:16.482Z,39.49
2023-03-18T03:19:43.872Z,39.50
2023-03-18T03:22:10.191Z,39.50
2023-03-18T03:24:36.551Z,39.54
2023-03-18T03:27:03.005Z,39.50
2023-03-18T03:29:29.389Z,39.43
2023-03-18T03:31:55.765Z,39.58
2023-03-18T03:34:22.097Z,39.49
2023-03-18T03:36:48.410Z,39.50
2023-03-18T03:39:14.774Z,39.54
2023-03-18T03:41:41.118Z,39.58
2023-03-18T03:44:07.490Z,39.60
2023-03-18T03:46:35.388Z,39.55
2023-03-18T03:49:01.831Z,39.69
2023-03-18T03:51:28.150Z,39.92
2023-03-18T03:53:54.998Z,39.93
2023-03-18T03:56:21.337Z,40.04
2023-03-18T03:58:47.756Z,40.00
2023-03-18T04:01:14.208Z,39.97
2023-03-18T04:03:42.409Z,40.02
2023-03-18T04:06:08.947Z,39.99
2023-03-18T04:08:39.916Z,40.02
2023-03-18T04:11:06.463Z,40.08
2023-03-18T04:13:33.702Z,40.02
2023-03-18T04:16:00.211Z,40.07
2023-03-18T04:18:26.627Z,40.15
2023-03-18T04:20:53.012Z,40.12
2023-03-18T04:23:29.996Z,40.11
2023-03-18T04:25:56.427Z,40.14
2023-03-18T04:28:22.784Z,40.03
2023-03-18T04:30:49.319Z,40.13
2023-03-18T04:33:17.830Z,40.07
2023-03-18T04:35:44.264Z,40.06
2023-03-18T04:38:12.761Z,40.12
2023-03-18T04:40:39.334Z,40.07
2023-03-18T04:43:05.829Z,40.05
2023-03-18T04:45:32.967Z,40.13
2023-03-18T04:48:00.942Z,40.09
2023-03-18T04:50:30.434Z,40.08
2023-03-18T04:52:57.154Z,40.13
2023-03-18T04:55:27.031Z,40.00
2023-03-18T04:57:54.511Z,40.12
2023-03-18T05:00:23.584Z,40.13
2023-03-18T05:02:55.509Z,40.03
2023-03-18T05:05:23.948Z,40.12
2023-03-18T05:07:52.035Z,40.16
2023-03-18T05:10:20.048Z,40.07
2023-03-18T05:12:46.913Z,40.17
2023-03-18T05:15:15.329Z,40.17
2023-03-18T05:17:47.679Z,40.17
2023-03-18T05:20:14.636Z,40.19
2023-03-18T05:22:42.822Z,40.22
2023-03-18T05:25:15.715Z,40.19
2023-03-18T05:27:42.283Z,40.26
2023-03-18T05:30:15.989Z,40.29
2023-03-18T05:32:47.309Z,40.27
2023-03-18T05:35:13.759Z,40.24
2023-03-18T05:37:48.820Z,40.22
2023-03-18T05:40:16.394Z,40.24
2023-03-18T05:42:56.130Z,40.19
2023-03-18T05:45:32.112Z,40.17
2023-03-18T05:47:58.622Z,40.23
2023-03-18T05:50:31.724Z,40.31
2023-03-18T05:52:59.536Z,40.32
2023-03-18T05:55:28.159Z,40.30
2023-03-18T05:57:54.622Z,40.31
2023-03-18T06:00:21.163Z,40.35
2023-03-18T06:02:49.555Z,40.32
2023-03-18T06:05:18.114Z,40.36
2023-03-18T06:07:45.618Z,40.33
2023-03-18T06:10:12.281Z,40.33
2023-03-18T06:12:39.029Z,40.24
2023-03-18T06:15:08.775Z,40.28
2023-03-18T06:17:35.422Z,40.38
2023-03-18T06:20:02.620Z,40.34
2023-03-18T06:22:29.531Z,40.34
2023-03-18T06:24:56.469Z,40.42
2023-03-18T06:27:23.328Z,40.31
2023-03-18T06:29:54.936Z,40.39
2023-03-18T06:32:21.678Z,40.38
2023-03-18T06:34:48.222Z,40.37
2023-03-18T06:37:15.274Z,40.41
2023-03-18T06:39:41.945Z,40.41
2023-03-18T06:42:10.775Z,40.36
2023-03-18T06:44:50.334Z,40.41
2023-03-18T06:47:21.841Z,40.41
2023-03-18T06:49:54.488Z,40.41
2023-03-18T06:52:28.262Z,40.41
2023-03-18T06:55:00.308Z,40.24
2023-03-18T06:57:27.587Z,40.38
2023-03-18T06:59:54.450Z,40.48
2023-03-18T07:02:23.435Z,40.45
2023-03-18T07:04:50.208Z,40.61
2023-03-18T07:07:16.581Z,40.61
2023-03-18T07:09:43.643Z,40.61
2023-03-18T07:12:09.992Z,40.56
2023-03-18T07:14:36.369Z,40.67
2023-03-18T07:17:03.843Z,39.94
2023-03-18T07:19:32.335Z,39.45
2023-03-18T07:21:58.768Z,39.58
2023-03-18T07:24:26.145Z,39.43
2023-03-18T07:26:53.474Z,39.30
2023-03-18T07:29:20.376Z,39.01
2023-03-18T07:31:46.909Z,38.93
2023-03-18T07:34:13.380Z,38.61
2023-03-18T07:36:39.709Z,38.34
2023-03-18T07:39:06.075Z,38.43
2023-03-18T07:41:32.559Z,37.73
2023-03-18T07:43:59.394Z,34.96
2023-03-18T07:46:25.889Z,34.06
2023-03-18T07:48:52.936Z,33.82
2023-03-18T07:51:19.280Z,34.36
2023-03-18T07:53:45.731Z,34.51
2023-03-18T07:56:13.065Z,34.71
2023-03-18T07:58:39.394Z,35.19
2023-03-18T08:01:05.755Z,35.25
2023-03-18T08:03:32.123Z,35.15
2023-03-18T08:05:58.492Z,35.96
2023-03-18T08:08:24.879Z,35.82
2023-03-18T08:10:52.300Z,36.38
2023-03-18T08:13:18.661Z,36.24
2023-03-18T08:15:44.999Z,36.56
2023-03-18T08:18:11.364Z,36.76
2023-03-18T08:20:38.284Z,36.81
2023-03-18T08:23:04.779Z,36.93
2023-03-18T08:25:31.675Z,37.08
2023-03-18T08:27:58.379Z,37.39
2023-03-18T08:30:28.533Z,37.27
2023-03-18T08:32:55.609Z,37.60
2023-03-18T08:35:22.018Z,37.53
2023-03-18T08:37:48.861Z,37.62
2023-03-18T08:40:15.179Z,37.90
2023-03-18T08:42:41.496Z,37.94
2023-03-18T08:45:08.083Z,38.07
2023-03-18T08:47:34.416Z,38.12
2023-03-18T08:50:00.803Z,38.16
2023-03-18T08:52:27.124Z,38.29
2023-03-18T08:54:53.475Z,38.31
2023-03-18T08:57:19.832Z,38.45
2023-03-18T08:59:46.732Z,38.48
2023-03-18T09:02:19.146Z,38.46
2023-03-18T09:04:45.488Z,38.66
2023-03-18T09:07:13.050Z,38.74
2023-03-18T09:09:43.840Z,38.90
2023-03-18T09:12:12.440Z,38.95
2023-03-18T09:14:40.358Z,38.87
2023-03-18T09:17:06.722Z,39.02
2023-03-18T09:19:33.053Z,39.01
2023-03-18T09:21:59.384Z,39.05
2023-03-18T09:24:25.922Z,39.04
2023-03-18T09:26:52.258Z,39.09
2023-03-18T09:29:18.571Z,39.12
2023-03-18T09:31:45.152Z,39.14
2023-03-18T09:34:13.471Z,39.15
2023-03-18T09:36:41.021Z,39.13
2023-03-18T09:39:08.836Z,39.19
2023-03-18T09:41:42.696Z,39.21
2023-03-18T09:44:24.990Z,39.23
2023-03-18T09:46:57.505Z,39.28
2023-03-18T09:49:27.374Z,39.14
2023-03-18T09:51:59.744Z,39.30
2023-03-18T09:54:32.137Z,39.49
2023-03-18T09:56:58.466Z,39.31
2023-03-18T09:59:26.607Z,39.35
2023-03-18T10:01:54.315Z,39.14
2023-03-18T10:04:22.062Z,39.31
2023-03-18T10:06:48.942Z,39.44
2023-03-18T10:09:24.144Z,39.42
2023-03-18T10:11:51.144Z,39.50
2023-03-18T10:14:26.707Z,39.45
2023-03-18T10:17:11.793Z,39.32
2023-03-18T10:19:38.140Z,39.52
2023-03-18T10:22:10.573Z,39.46
2023-03-18T10:24:42.568Z,39.49
2023-03-18T10:27:19.154Z,39.46
2023-03-18T10:29:51.201Z,39.58
2023-03-18T10:32:20.506Z,39.48
2023-03-18T10:34:57.593Z,39.64
2023-03-18T10:37:43.699Z,39.60
2023-03-18T10:40:11.046Z,39.70
2023-03-18T10:42:37.375Z,39.63
2023-03-18T10:45:08.574Z,39.81
2023-03-18T10:47:36.543Z,39.80
2023-03-18T10:50:14.842Z,39.89
2023-03-18T10:52:48.056Z,39.96
2023-03-18T10:55:18.287Z,40.09
2023-03-18T10:57:44.944Z,40.15
2023-03-18T11:00:30.761Z,39.90
2023-03-18T11:02:57.460Z,40.29
2023-03-18T11:05:29.106Z,40.29
2023-03-18T11:08:18.455Z,40.58
2023-03-18T11:10:46.028Z,40.45
2023-03-18T11:13:18.369Z,40.62
2023-03-18T11:15:46.710Z,40.61
2023-03-18T11:18:19.488Z,40.68
2023-03-18T11:20:47.550Z,40.54
2023-03-18T11:23:15.243Z,40.69
2023-03-18T11:25:41.571Z,40.80
2023-03-18T11:28:13.337Z,40.77
2023-03-18T11:30:44.889Z,40.84
2023-03-18T11:33:11.836Z,40.81
2023-03-18T11:35:57.361Z,40.80
2023-03-18T11:38:28.582Z,40.79
2023-03-18T11:41:05.307Z,40.96
2023-03-18T11:43:31.635Z,40.87
2023-03-18T11:45:58.303Z,41.06
2023-03-18T11:48:36.407Z,41.13
2023-03-18T11:51:25.225Z,40.92
2023-03-18T11:53:55.682Z,41.19
2023-03-18T11:56:33.785Z,41.23
2023-03-18T11:59:02.154Z,41.03
2023-03-18T12:01:42.836Z,41.27
2023-03-18T12:04:23.476Z,40.84
2023-03-18T12:06:56.079Z,40.71
2023-03-18T12:09:29.252Z,41.12
2023-03-18T12:11:59.034Z,41.28
2023-03-18T12:15:01.025Z,41.31
2023-03-18T12:17:36.093Z,41.36
2023-03-18T12:20:09.945Z,41.24
2023-03-18T12:22:57.488Z,41.59
2023-03-18T12:25:30.493Z,41.49
2023-03-18T12:27:59.019Z,41.56
2023-03-18T12:30:25.289Z,41.66
2023-03-18T12:32:58.061Z,41.62
2023-03-18T12:35:29.023Z,41.67
2023-03-18T12:38:11.484Z,41.88
2023-03-18T12:40:56.589Z,41.93
2023-03-18T12:43:24.765Z,41.89
2023-03-18T12:45:53.431Z,41.91
2023-03-18T12:48:40.696Z,41.96
2023-03-18T12:51:10.005Z,42.07
2023-03-18T12:53:38.332Z,41.93
2023-03-18T12:56:05.834Z,42.20
2023-03-18T12:58:32.809Z,42.29
2023-03-18T13:00:59.902Z,42.15
2023-03-18T13:03:33.080Z,42.15
2023-03-18T13:06:04.008Z,42.34
2023-03-18T13:08:47.741Z,42.46
2023-03-18T13:11:33.697Z,42.43
2023-03-18T13:14:07.320Z,42.46
2023-03-18T13:16:33.752Z,42.41
2023-03-18T13:19:00.119Z,42.60
2023-03-18T13:21:29.516Z,42.50
2023-03-18T13:24:02.182Z,42.69
2023-03-18T13:26:46.537Z,42.54
2023-03-18T13:29:16.598Z,42.74
2023-03-18T13:31:43.331Z,42.73
2023-03-18T13:34:19.793Z,42.76
2023-03-18T13:36:48.805Z,42.56
2023-03-18T13:39:19.670Z,42.64
2023-03-18T13:42:05.445Z,42.83
2023-03-18T13:44:35.880Z,42.91
2023-03-18T13:47:03.518Z,43.10
2023-03-18T13:49:30.807Z,43.00
2023-03-18T13:52:01.279Z,43.13
2023-03-18T13:54:32.537Z,43.33
2023-03-18T13:57:00.756Z,43.30
2023-03-18T13:59:32.990Z,43.25
2023-03-18T14:02:00.272Z,43.16
2023-03-18T14:04:27.005Z,43.18
2023-03-18T14:06:55.303Z,43.13
2023-03-18T14:09:22.325Z,43.24
2023-03-18T14:11:50.140Z,43.31
2023-03-18T14:14:36.503Z,43.03
2023-03-18T14:17:02.879Z,43.13
2023-03-18T14:19:32.490Z,43.26
2023-03-18T14:22:06.098Z,43.31
2023-03-18T14:24:35.900Z,43.31
2023-03-18T14:27:04.895Z,43.54
2023-03-18T14:29:37.068Z,43.28
2023-03-18T14:32:08.461Z,43.54
2023-03-18T14:34:53.594Z,43.51
2023-03-18T14:37:19.868Z,43.57
2023-03-18T14:39:47.857Z,43.52
2023-03-18T14:42:33.262Z,43.41
2023-03-18T14:45:04.473Z,43.30
2023-03-18T14:47:39.539Z,43.57
2023-03-18T14:50:14.155Z,43.59
2023-03-18T14:52:41.038Z,43.43
2023-03-18T14:55:17.154Z,43.61
2023-03-18T14:57:44.576Z,43.54
2023-03-18T15:00:16.922Z,43.40
2023-03-18T15:02:44.078Z,43.52
2023-03-18T15:05:12.126Z,43.50
2023-03-18T15:07:39.290Z,43.56
2023-03-18T15:10:10.957Z,43.43
2023-03-18T15:12:37.330Z,43.61
2023-03-18T15:15:05.045Z,43.54
2023-03-18T15:17:31.428Z,43.38
2023-03-18T15:19:59.922Z,43.42
2023-03-18T15:22:28.356Z,43.41
2023-03-18T15:24:58.989Z,43.49
2023-03-18T15:27:25.320Z,43.39
2023-03-18T15:29:55.729Z,43.37
2023-03-18T15:32:31.716Z,43.40
2023-03-18T15:34:58.077Z,43.43
2023-03-18T15:37:30.683Z,43.40
2023-03-18T15:39:58.877Z,43.43
2023-03-18T15:42:25.251Z,43.45
2023-03-18T15:45:00.602Z,43.58
2023-03-18T15:47:30.657Z,43.62
2023-03-18T15:49:57.816Z,43.57
2023-03-18T15:52:31.255Z,43.52
2023-03-18T15:54:57.921Z,43.47
2023-03-18T15:57:35.035Z,43.48
2023-03-18T16:00:01.480Z,43.48
2023-03-18T16:02:28.669Z,43.54
2023-03-18T16:05:15.398Z,43.62
2023-03-18T16:07:41.733Z,43.49
2023-03-18T16:10:09.410Z,43.64
2023-03-18T16:12:35.785Z,43.53
2023-03-18T16:15:02.728Z,43.49
2023-03-18T16:17:29.879Z,43.60
2023-03-18T16:19:57.284Z,43.69
2023-03-18T16:22:23.650Z,43.69
2023-03-18T16:24:49.982Z,43.63
2023-03-18T16:27:29.244Z,43.43
2023-03-18T16:29:55.978Z,43.21
2023-03-18T16:32:22.946Z,43.38
2023-03-18T16:34:52.197Z,43.46
2023-03-18T16:37:23.021Z,43.24
2023-03-18T16:56:14.466Z,43.50
2023-03-18T16:58:42.075Z,43.37
2023-03-18T17:01:08.455Z,43.51
2023-03-18T17:03:34.969Z,43.39
2023-03-18T17:06:01.948Z,43.47
2023-03-18T17:08:28.303Z,43.45
2023-03-18T17:10:55.377Z,43.58
2023-03-18T17:13:23.040Z,43.63
2023-03-18T17:15:49.532Z,43.60
2023-03-18T17:18:16.540Z,43.70
2023-03-18T17:20:43.908Z,43.66
2023-03-18T17:23:14.288Z,43.55
2023-03-18T17:25:40.808Z,43.79
2023-03-18T17:28:07.294Z,43.63
2023-03-18T17:30:34.596Z,43.59
2023-03-18T17:33:01.177Z,43.74
2023-03-18T17:35:27.634Z,43.56
2023-03-18T17:37:54.492Z,43.66
2023-03-18T17:40:21.264Z,43.61
2023-03-18T17:42:54.190Z,43.71
2023-03-18T17:45:33.608Z,43.62
2023-03-18T17:48:16.293Z,43.59
2023-03-18T17:50:44.066Z,43.62
2023-03-18T17:53:19.458Z,43.62
2023-03-18T17:55:45.789Z,43.75
2023-03-18T17:58:15.681Z,43.68
2023-03-18T18:00:42.146Z,43.67
2023-03-18T18:03:09.437Z,43.78
2023-03-18T18:05:36.199Z,43.62
2023-03-18T18:08:03.886Z,43.78
2023-03-18T18:10:30.206Z,43.64
2023-03-18T18:12:56.555Z,43.60
2023-03-18T18:15:25.872Z,43.59
2023-03-18T18:17:52.317Z,43.69
2023-03-18T18:20:28.565Z,43.67
2023-03-18T18:22:55.360Z,43.87
2023-03-18T18:25:22.247Z,43.83
2023-03-18T18:27:49.590Z,43.83
2023-03-18T18:30:17.508Z,43.83
2023-03-18T18:32:44.280Z,43.96
2023-03-18T18:35:14.639Z,43.83
2023-03-18T18:37:41.749Z,43.85
2023-03-18T18:40:10.499Z,43.94
2023-03-18T18:42:36.832Z,44.00
2023-03-18T18:45:04.004Z,44.40
2023-03-18T18:47:31.390Z,44.23
2023-03-18T18:49:57.715Z,44.34
2023-03-18T18:52:24.027Z,44.55
2023-03-18T18:54:50.418Z,44.73
2023-03-18T18:57:26.743Z,45.10
2023-03-18T18:59:53.115Z,45.14
2023-03-18T19:02:24.710Z,45.17
2023-03-18T19:04:52.373Z,44.97
2023-03-18T19:07:18.693Z,45.03
2023-03-18T19:09:45.489Z,44.90
2023-03-18T19:12:13.987Z,44.88
2023-03-18T19:14:40.466Z,45.01
2023-03-18T19:17:10.108Z,45.18
2023-03-18T19:19:36.436Z,45.03
2023-03-18T19:22:04.324Z,45.17
2023-03-18T19:24:36.637Z,44.97
2023-03-18T19:27:04.053Z,44.99
2023-03-18T19:29:30.581Z,45.34
2023-03-18T19:31:57.077Z,45.35
2023-03-18T19:34:23.725Z,45.30
2023-03-18T19:36:52.873Z,45.30
2023-03-18T19:39:19.405Z,46.06
2023-03-18T19:41:50.444Z,45.35
2023-03-18T19:44:24.152Z,45.54
2023-03-18T19:46:51.797Z,45.78
2023-03-18T19:49:27.871Z,45.75
2023-03-18T19:51:54.659Z,45.92
2023-03-18T19:54:33.558Z,45.71
2023-03-18T19:57:02.110Z,45.75
2023-03-18T19:59:36.069Z,45.77
2023-03-18T20:02:04.969Z,45.70
2023-03-18T20:04:31.445Z,45.60
2023-03-18T20:06:58.141Z,45.55
2023-03-18T20:09:25.238Z,45.84
2023-03-18T20:11:52.886Z,45.79
2023-03-18T20:14:26.082Z,45.66
2023-03-18T20:16:52.552Z,45.74
2023-03-18T20:19:18.955Z,45.80
2023-03-18T20:21:45.612Z,45.73
2023-03-18T20:24:12.698Z,45.88
2023-03-18T20:26:39.021Z,46.09
2023-03-18T20:29:14.476Z,46.00
2023-03-18T20:31:40.810Z,45.83
2023-03-18T20:34:16.095Z,45.98
2023-03-18T20:36:42.429Z,45.97
2023-03-18T20:39:13.106Z,45.88
2023-03-18T20:41:39.484Z,45.90
2023-03-18T20:44:06.088Z,45.77
2023-03-18T20:46:32.507Z,45.47
2023-03-18T20:48:58.859Z,45.29
2023-03-18T20:51:31.125Z,45.47
2023-03-18T20:53:59.071Z,45.64
2023-03-18T20:56:35.161Z,45.42
2023-03-18T20:59:04.151Z,45.27
2023-03-18T21:01:30.542Z,45.59
2023-03-18T21:04:01.517Z,45.59
2023-03-18T21:06:29.009Z,45.57
2023-03-18T21:08:55.485Z,45.58
2023-03-18T21:11:22.953Z,45.62
2023-03-18T21:13:49.325Z,45.48
2023-03-18T21:16:16.615Z,45.47
2023-03-18T21:18:45.317Z,45.53
2023-03-18T21:21:17.551Z,45.54
2023-03-18T21:23:43.871Z,45.70
2023-03-18T21:26:10.228Z,45.39
2023-03-18T21:28:36.584Z,45.42
2023-03-18T21:31:02.976Z,45.23
2023-03-18T21:33:31.122Z,45.49
2023-03-18T21:35:57.695Z,45.43
2023-03-18T21:38:24.274Z,45.29
2023-03-18T21:40:51.500Z,45.32
2023-03-18T21:43:27.244Z,45.17
2023-03-18T21:45:54.039Z,45.38
2023-03-18T21:48:21.205Z,45.67
2023-03-18T21:50:47.556Z,45.54
2023-03-18T21:53:14.507Z,45.62
2023-03-18T21:55:41.023Z,45.52
2023-03-18T21:58:10.349Z,45.54
2023-03-18T22:00:36.670Z,45.55
2023-03-18T22:03:05.604Z,45.51
2023-03-18T22:05:32.117Z,45.41
2023-03-18T22:07:58.538Z,45.43
2023-03-18T22:10:24.875Z,45.48
2023-03-18T22:12:51.225Z,45.62
2023-03-18T22:15:23.338Z,45.65
2023-03-18T22:17:49.693Z,45.61
2023-03-18T22:20:16.300Z,45.62
2023-03-18T22:22:42.632Z,45.60
2023-03-18T22:25:26.060Z,45.70
2023-03-18T22:27:52.388Z,45.65
2023-03-18T22:30:18.731Z,45.48
2023-03-18T22:32:45.660Z,45.62
2023-03-18T22:35:16.065Z,45.54
2023-03-18T22:37:42.458Z,45.54
2023-03-18T22:40:10.676Z,45.74
2023-03-18T22:42:37.015Z,45.66
2023-03-18T22:45:03.569Z,45.71
2023-03-18T22:47:29.919Z,45.55
2023-03-18T22:49:56.257Z,45.55
2023-03-18T22:52:26.080Z,45.62
2023-03-18T22:54:59.328Z,45.64
2023-03-18T22:57:28.613Z,45.60
2023-03-18T22:59:55.421Z,45.61
2023-03-18T23:02:26.402Z,45.66
2023-03-18T23:04:53.165Z,45.54
2023-03-18T23:07:29.357Z,45.57
2023-03-18T23:09:56.966Z,45.65
2023-03-18T23:12:24.079Z,45.57
2023-03-18T23:14:50.831Z,45.40
2023-03-18T23:17:17.300Z,45.69
2023-03-18T23:19:43.732Z,45.52
2023-03-18T23:22:11.033Z,45.64
2023-03-18T23:24:37.471Z,45.62
2023-03-18T23:27:03.860Z,45.65
2023-03-18T23:29:30.412Z,45.73
2023-03-18T23:31:56.734Z,45.73
2023-03-18T23:34:23.100Z,45.71
2023-03-18T23:36:49.427Z,45.55
2023-03-18T23:39:15.808Z,45.58
2023-03-18T23:41:42.147Z,45.67
2023-03-18T23:44:08.500Z,45.71
2023-03-18T23:46:34.905Z,45.63
2023-03-18T23:49:01.260Z,45.70
2023-03-18T23:51:27.584Z,45.71
2023-03-18T23:53:53.971Z,45.65
2023-03-18T23:56:20.519Z,45.82
2023-03-18T23:58:46.846Z,45.72
